Time;durP1;ratioP1;P1;durP2;ratioP2;P2;SDS_P1;SDS_P2;PMS_P1;PMS_P2;Temp;Humidity;BMP_temperature;BMP_pressure;BME280_temperature;BME280_humidity;BME280_pressure;Samples;Min_cycle;Max_cycle;Signal;HPM_P1;HPM_P2
2023/07/10 00:02:25;;;;;;;5.67;5.20;;;22.70;1.00;;;;;;5011540;28;20190;-70
2023/07/10 00:04:50;;;;;;;7.53;6.23;;;22.60;1.00;;;;;;5012962;28;20191;-70
2023/07/10 00:07:16;;;;;;;9.27;5.70;;;22.50;1.00;;;;;;5013188;28;20912;-70
2023/07/10 00:09:41;;;;;;;4.77;4.40;;;22.40;1.00;;;;;;5012916;28;20222;-70
2023/07/10 00:12:12;;;;;;;5.40;4.87;;;22.30;1.00;;;;;;5011388;28;20187;-71
2023/07/10 00:14:38;;;;;;;5.60;4.70;;;22.20;1.00;;;;;;5012783;28;20520;-71
2023/07/10 00:17:08;;;;;;;7.37;5.30;;;22.10;1.00;;;;;;5012662;28;20411;-71
2023/07/10 00:19:33;;;;;;;6.10;4.93;;;22.10;1.00;;;;;;5012557;28;20208;-70
2023/07/10 00:21:59;;;;;;;5.20;4.70;;;22.00;1.00;;;;;;5012382;28;20434;-71
2023/07/10 00:24:25;;;;;;;5.40;4.40;;;22.00;1.00;;;;;;5012596;28;20176;-71
2023/07/10 00:26:50;;;;;;;5.33;4.20;;;21.90;1.00;;;;;;5011339;28;20761;-70
2023/07/10 00:29:20;;;;;;;7.40;4.83;;;21.80;1.00;;;;;;5012758;28;20199;-70
2023/07/10 00:31:46;;;;;;;4.73;4.30;;;21.80;1.00;;;;;;5012360;28;20176;-71
2023/07/10 00:34:16;;;;;;;5.23;4.73;;;21.70;1.00;;;;;;5012541;28;20469;-72
2023/07/10 00:36:44;;;;;;;6.83;6.07;;;21.60;1.00;;;;;;5012737;28;20191;-69
2023/07/10 00:39:27;;;;;;;6.83;4.80;;;21.60;1.00;;;;;;5012714;28;20490;-70
2023/07/10 00:41:59;;;;;;;5.80;4.27;;;21.60;1.00;;;;;;5012269;28;20423;-69
2023/07/10 00:44:33;;;;;;;4.80;4.40;;;21.50;1.00;;;;;;5012710;28;20415;-69
2023/07/10 00:47:09;;;;;;;6.53;5.03;;;21.40;1.00;;;;;;5012433;28;20439;-68
2023/07/10 00:49:54;;;;;;;5.83;4.93;;;21.40;1.00;;;;;;5011995;28;20439;-70
2023/07/10 00:52:24;;;;;;;4.97;4.30;;;21.40;1.00;;;;;;5011967;28;20415;-70
2023/07/10 00:54:52;;;;;;;9.00;5.00;;;21.40;1.00;;;;;;5012451;28;20969;-70
2023/07/10 00:57:39;;;;;;;8.43;4.70;;;21.40;1.00;;;;;;5010772;28;20434;-69
2023/07/10 01:00:27;;;;;;;6.73;4.43;;;21.30;1.00;;;;;;5011937;28;20485;-69
2023/07/10 01:02:52;;;;;;;5.90;4.60;;;21.20;1.00;;;;;;5011958;28;20411;-70
2023/07/10 01:05:19;;;;;;;7.10;4.40;;;21.20;1.00;;;;;;5012090;28;20800;-69
2023/07/10 01:07:50;;;;;;;5.90;4.33;;;21.20;1.00;;;;;;5012354;28;20168;-69
2023/07/10 01:10:15;;;;;;;5.30;4.80;;;21.10;1.00;;;;;;5011792;28;20455;-70
2023/07/10 01:12:43;;;;;;;6.23;4.83;;;21.10;1.00;;;;;;5011643;28;20837;-70
2023/07/10 01:15:10;;;;;;;5.27;4.43;;;21.20;1.00;;;;;;5011945;28;20172;-69
2023/07/10 01:17:36;;;;;;;7.93;5.27;;;21.20;1.00;;;;;;5012004;28;20411;-69
2023/07/10 01:20:22;;;;;;;4.57;4.17;;;21.20;1.00;;;;;;5012081;28;20470;-70
2023/07/10 01:22:47;;;;;;;6.80;4.60;;;21.40;1.00;;;;;;5013864;28;20407;-69
2023/07/10 01:25:13;;;;;;;4.23;3.83;;;21.40;1.00;;;;;;5016193;28;20946;-70
2023/07/10 01:27:39;;;;;;;7.73;4.90;;;21.40;1.00;;;;;;5015952;28;20179;-70
2023/07/10 01:30:15;;;;;;;5.40;4.50;;;21.40;1.00;;;;;;5016010;28;20210;-70
2023/07/10 01:32:40;;;;;;;6.83;6.13;;;21.40;1.00;;;;;;5015917;28;20398;-70
2023/07/10 01:35:08;;;;;;;6.50;5.07;;;21.40;1.00;;;;;;5014614;28;20940;-71
2023/07/10 01:37:34;;;;;;;7.13;4.10;;;21.40;1.00;;;;;;5015752;28;20186;-70
2023/07/10 01:40:00;;;;;;;6.10;5.13;;;21.30;1.00;;;;;;5015496;28;20462;-70
2023/07/10 01:42:25;;;;;;;7.13;5.10;;;21.30;1.00;;;;;;5015356;28;20172;-69
2023/07/10 01:44:51;;;;;;;5.70;4.67;;;21.30;1.00;;;;;;5015495;28;20658;-69
2023/07/10 01:47:17;;;;;;;6.37;4.33;;;21.30;1.00;;;;;;5014070;28;20225;-70
2023/07/10 01:49:50;;;;;;;4.67;4.23;;;21.30;1.00;;;;;;5015201;28;20484;-69
2023/07/10 01:52:19;;;;;;;6.47;5.83;;;21.20;1.00;;;;;;5015198;28;20258;-72
2023/07/10 01:54:45;;;;;;;4.47;4.07;;;21.10;1.00;;;;;;5015261;28;20415;-70
2023/07/10 01:57:15;;;;;;;5.57;4.50;;;21.10;1.00;;;;;;5015280;28;20415;-69
2023/07/10 01:59:41;;;;;;;5.17;4.67;;;21.20;1.00;;;;;;5014930;28;20462;-70
2023/07/10 02:02:07;;;;;;;6.73;5.10;;;21.20;1.00;;;;;;5014811;28;20414;-69
2023/07/10 02:04:33;;;;;;;6.00;4.70;;;21.30;1.00;;;;;;5014954;28;20465;-69
2023/07/10 02:07:02;;;;;;;8.20;4.50;;;21.20;1.00;;;;;;5014948;28;20410;-69
2023/07/10 02:09:29;;;;;;;5.63;4.13;;;21.30;1.00;;;;;;5015283;28;20461;-68
2023/07/10 02:11:55;;;;;;;6.00;4.87;;;21.30;1.00;;;;;;5014825;28;20457;-68
2023/07/10 02:14:22;;;;;;;5.67;4.93;;;21.30;1.00;;;;;;5015036;28;20508;-69
2023/07/10 02:16:48;;;;;;;5.60;5.00;;;21.20;1.00;;;;;;5015498;28;20419;-69
2023/07/10 02:19:13;;;;;;;5.27;4.77;;;21.10;1.00;;;;;;5015016;28;21008;-68
2023/07/10 02:21:39;;;;;;;8.83;4.90;;;21.20;1.00;;;;;;5014569;28;20434;-68
2023/07/10 02:24:06;;;;;;;5.70;5.10;;;21.30;1.00;;;;;;5014485;28;20175;-68
2023/07/10 02:26:32;;;;;;;3.90;3.50;;;21.20;1.00;;;;;;5014527;28;20410;-68
2023/07/10 02:28:58;;;;;;;7.00;4.90;;;21.20;1.00;;;;;;5014350;28;20513;-68
2023/07/10 02:31:25;;;;;;;4.40;4.00;;;21.20;1.00;;;;;;5014306;28;20879;-69
2023/07/10 02:33:51;;;;;;;7.17;4.30;;;21.30;1.00;;;;;;5012971;28;20549;-69
2023/07/10 02:36:16;;;;;;;9.77;5.00;;;21.30;1.00;;;;;;5014447;28;20509;-69
2023/07/10 02:38:42;;;;;;;5.30;4.20;;;21.40;1.00;;;;;;5014151;28;20215;-69
2023/07/10 02:41:08;;;;;;;5.33;4.83;;;21.40;1.00;;;;;;5014146;28;20282;-69
2023/07/10 02:43:34;;;;;;;6.20;4.93;;;21.40;1.00;;;;;;5014004;28;20546;-69
2023/07/10 02:45:59;;;;;;;5.97;4.53;;;21.40;1.00;;;;;;5014191;28;20176;-69
2023/07/10 02:48:25;;;;;;;5.00;4.30;;;21.40;1.00;;;;;;5014030;28;20183;-69
2023/07/10 02:50:50;;;;;;;5.13;4.57;;;21.40;1.00;;;;;;5014079;28;20200;-69
2023/07/10 02:53:16;;;;;;;5.87;5.13;;;21.50;1.00;;;;;;5013891;28;20230;-69
2023/07/10 02:55:43;;;;;;;6.33;5.23;;;21.50;1.00;;;;;;5014103;28;20172;-69
2023/07/10 02:58:08;;;;;;;7.13;4.93;;;21.60;1.00;;;;;;5014012;28;20637;-69
2023/07/10 03:00:34;;;;;;;5.07;4.30;;;21.60;1.00;;;;;;5013656;28;20470;-69
2023/07/10 03:02:59;;;;;;;5.40;4.90;;;21.60;1.00;;;;;;5013559;28;20191;-70
2023/07/10 03:05:26;;;;;;;8.00;4.70;;;21.60;1.00;;;;;;5012523;28;20204;-69
2023/07/10 03:07:52;;;;;;;6.80;5.40;;;21.70;1.00;;;;;;5013772;28;20176;-69
2023/07/10 03:10:18;;;;;;;5.37;4.87;;;21.70;1.00;;;;;;5013423;28;20466;-70
2023/07/10 03:12:44;;;;;;;6.23;5.03;;;21.70;1.00;;;;;;5013512;28;20808;-68
2023/07/10 03:15:09;;;;;;;6.97;4.73;;;21.80;1.00;;;;;;5013581;28;20421;-70
2023/07/10 03:17:35;;;;;;;7.53;3.90;;;21.80;1.00;;;;;;5013463;28;20171;-68
2023/07/10 03:20:01;;;;;;;5.70;5.10;;;21.80;1.00;;;;;;5012910;28;20226;-68
2023/07/10 03:22:27;;;;;;;5.50;5.00;;;21.80;1.00;;;;;;5013348;28;20171;-68
2023/07/10 03:24:53;;;;;;;5.57;5.07;;;21.80;1.00;;;;;;5013266;28;20176;-68
2023/07/10 03:27:19;;;;;;;6.53;4.60;;;21.80;1.00;;;;;;5013431;28;20176;-68
2023/07/10 03:29:44;;;;;;;5.33;4.50;;;21.80;1.00;;;;;;5013198;28;20450;-68
2023/07/10 03:32:10;;;;;;;6.13;4.13;;;21.80;1.00;;;;;;5012506;28;20180;-69
2023/07/10 03:34:36;;;;;;;10.97;5.30;;;21.80;1.00;;;;;;5012817;28;20176;-68
2023/07/10 03:37:02;;;;;;;5.70;5.20;;;21.80;1.00;;;;;;5013115;28;20259;-69
2023/07/10 03:39:28;;;;;;;7.70;5.80;;;21.80;1.00;;;;;;5013035;28;20208;-70
2023/07/10 03:41:54;;;;;;;4.90;4.17;;;21.90;1.00;;;;;;5012949;28;20423;-68
2023/07/10 03:44:20;;;;;;;7.40;5.50;;;21.90;1.00;;;;;;5012705;28;20204;-69
2023/07/10 03:46:45;;;;;;;6.10;5.50;;;21.90;1.00;;;;;;5013239;28;20176;-68
2023/07/10 03:49:11;;;;;;;6.17;4.20;;;21.90;1.00;;;;;;5011631;28;20199;-69
2023/07/10 03:51:36;;;;;;;5.80;4.90;;;22.00;1.00;;;;;;5012670;28;20211;-68
2023/07/10 03:54:02;;;;;;;7.07;6.10;;;22.00;1.00;;;;;;5012836;28;20179;-68
2023/07/10 03:56:28;;;;;;;6.27;5.07;;;22.00;1.00;;;;;;5012938;28;20180;-68
2023/07/10 03:58:53;;;;;;;5.70;5.10;;;22.00;1.00;;;;;;5012621;28;20203;-68
2023/07/10 04:01:19;;;;;;;6.43;5.73;;;22.00;1.00;;;;;;5012619;28;20255;-68
2023/07/10 04:03:44;;;;;;;6.47;4.97;;;22.00;1.00;;;;;;5012553;28;20183;-68
2023/07/10 04:06:13;;;;;;;7.27;5.00;;;22.00;1.00;;;;;;5012686;28;20638;-69
2023/07/10 04:08:40;;;;;;;5.60;5.07;;;22.00;1.00;;;;;;5012612;28;20533;-68
2023/07/10 04:11:31;;;;;;;6.40;5.30;;;22.10;1.00;;;;;;5012513;28;20550;-68
2023/07/10 04:13:57;;;;;;;6.70;5.00;;;22.10;1.00;;;;;;5009486;28;20790;-69
2023/07/10 04:16:25;;;;;;;6.03;5.27;;;22.10;1.00;;;;;;5012500;28;20414;-68
2023/07/10 04:18:52;;;;;;;7.03;4.60;;;22.00;1.00;;;;;;5012316;28;20206;-69
2023/07/10 04:21:24;;;;;;;7.33;5.03;;;22.00;1.00;;;;;;5012560;28;20437;-68
2023/07/10 04:23:50;;;;;;;10.23;6.50;;;22.10;1.00;;;;;;5012036;28;20415;-67
2023/07/10 04:26:22;;;;;;;4.53;4.03;;;22.10;1.00;;;;;;5012477;28;20419;-68
2023/07/10 04:28:49;;;;;;;5.00;4.60;;;22.10;1.00;;;;;;5012195;28;20407;-68
2023/07/10 04:31:16;;;;;;;4.87;4.13;;;22.10;1.00;;;;;;5012373;28;20780;-68
2023/07/10 04:33:42;;;;;;;5.40;4.10;;;22.10;1.00;;;;;;5011958;28;20498;-69
2023/07/10 04:36:08;;;;;;;5.93;5.00;;;22.20;1.00;;;;;;5012253;28;20464;-68
2023/07/10 04:38:34;;;;;;;5.60;4.80;;;22.00;1.80;;;;;;5012038;28;20176;-68
2023/07/10 04:41:05;;;;;;;6.90;4.63;;;22.10;1.30;;;;;;5012000;28;20435;-68
2023/07/10 04:43:33;;;;;;;6.07;4.20;;;21.90;2.40;;;;;;5011998;28;20458;-69
2023/07/10 04:46:00;;;;;;;5.83;4.70;;;21.90;3.00;;;;;;5011925;28;20923;-72
2023/07/10 04:48:27;;;;;;;5.57;4.93;;;21.80;3.60;;;;;;5011821;28;20757;-71
2023/07/10 04:50:54;;;;;;;4.53;4.10;;;21.70;3.50;;;;;;5011691;28;20869;-71
2023/07/10 04:53:21;;;;;;;6.23;5.30;;;21.70;4.20;;;;;;5011420;28;20415;-70
2023/07/10 04:55:48;;;;;;;5.00;4.00;;;21.80;3.60;;;;;;5010843;28;20419;-71
2023/07/10 04:58:14;;;;;;;9.80;5.03;;;21.80;4.00;;;;;;5011456;28;20499;-71
2023/07/10 05:00:40;;;;;;;7.53;4.17;;;21.80;4.00;;;;;;5011390;28;20956;-71
2023/07/10 05:03:06;;;;;;;6.50;4.70;;;21.90;4.10;;;;;;5011300;28;20497;-71
2023/07/10 05:05:32;;;;;;;5.87;4.80;;;21.90;4.00;;;;;;5010175;28;20541;-71
2023/07/10 05:07:59;;;;;;;4.53;3.93;;;22.10;3.10;;;;;;5011421;28;20415;-70
2023/07/10 05:10:25;;;;;;;8.73;4.40;;;22.20;2.80;;;;;;5011191;28;20458;-71
2023/07/10 05:12:50;;;;;;;4.53;3.87;;;22.30;2.30;;;;;;5011086;28;20414;-70
2023/07/10 05:15:16;;;;;;;6.60;4.90;;;22.40;2.00;;;;;;5011539;28;20239;-70
2023/07/10 05:17:42;;;;;;;7.60;4.80;;;22.50;1.60;;;;;;5011450;28;20187;-71
2023/07/10 05:20:08;;;;;;;8.33;5.70;;;22.50;1.10;;;;;;5011133;28;20216;-71
2023/07/10 05:22:35;;;;;;;5.07;4.53;;;22.40;1.00;;;;;;5011583;28;20226;-71
2023/07/10 05:25:00;;;;;;;8.13;4.90;;;22.40;1.00;;;;;;5012006;28;20451;-71
2023/07/10 05:27:26;;;;;;;11.37;5.77;;;22.40;1.20;;;;;;5011965;28;20802;-69
2023/07/10 05:29:52;;;;;;;6.97;4.53;;;22.40;1.50;;;;;;5011448;28;20543;-69
2023/07/10 05:32:17;;;;;;;6.40;4.93;;;22.40;1.90;;;;;;5011317;28;20172;-69
2023/07/10 05:34:43;;;;;;;4.37;3.97;;;22.50;2.40;;;;;;5011296;28;20930;-69
2023/07/10 05:37:09;;;;;;;10.50;5.13;;;22.50;2.20;;;;;;5011491;28;20176;-69
2023/07/10 05:39:35;;;;;;;7.60;5.60;;;22.60;2.20;;;;;;5011065;28;20211;-69
2023/07/10 05:42:00;;;;;;;6.60;5.37;;;22.70;1.80;;;;;;5011219;28;20502;-69
2023/07/10 05:44:26;;;;;;;6.00;4.57;;;22.80;1.90;;;;;;5010004;28;20176;-69
2023/07/10 05:46:55;;;;;;;6.30;5.30;;;22.70;2.40;;;;;;5011292;28;20175;-70
2023/07/10 05:49:22;;;;;;;6.20;5.17;;;22.60;4.20;;;;;;5011500;28;20291;-70
2023/07/10 05:51:47;;;;;;;7.30;5.20;;;22.50;3.70;;;;;;5011543;28;20790;-70
2023/07/10 05:54:13;;;;;;;6.70;5.43;;;22.70;3.70;;;;;;5011190;28;20411;-71
2023/07/10 05:56:38;;;;;;;5.87;4.67;;;22.90;4.70;;;;;;5011021;28;20191;-69
2023/07/10 05:59:04;;;;;;;6.50;5.20;;;23.00;4.50;;;;;;5010860;28;20673;-70
2023/07/10 06:01:29;;;;;;;6.60;5.03;;;23.20;5.20;;;;;;5009385;28;20179;-70
2023/07/10 06:03:55;;;;;;;6.60;4.90;;;23.20;6.80;;;;;;5010828;28;20180;-69
2023/07/10 06:06:20;;;;;;;12.73;5.50;;;23.00;6.80;;;;;;5011290;28;20180;-70
2023/07/10 06:08:46;;;;;;;7.73;5.53;;;23.10;5.70;;;;;;5012829;28;20188;-70
2023/07/10 06:11:11;;;;;;;14.23;7.00;;;23.10;6.00;;;;;;5014878;28;20269;-71
2023/07/10 06:13:37;;;;;;;8.90;5.83;;;23.40;5.80;;;;;;5014432;28;20225;-70
2023/07/10 06:16:08;;;;;;;7.70;5.37;;;23.80;4.20;;;;;;5014842;28;20187;-70
2023/07/10 06:18:34;;;;;;;5.80;4.73;;;24.50;2.80;;;;;;5014366;28;20172;-70
2023/07/10 06:21:00;;;;;;;6.13;5.50;;;25.10;1.70;;;;;;5014743;28;20438;-70
2023/07/10 06:23:28;;;;;;;6.37;4.87;;;25.40;1.00;;;;;;5014601;28;20179;-70
2023/07/10 06:25:54;;;;;;;6.10;5.50;;;25.70;1.00;;;;;;5014425;28;20764;-70
2023/07/10 06:28:20;;;;;;;12.30;5.50;;;26.20;1.00;;;;;;5013747;28;20426;-71
2023/07/10 06:30:57;;;;;;;8.10;5.80;;;26.80;1.00;;;;;;5014140;28;20965;-70
2023/07/10 06:33:23;;;;;;;10.00;6.70;;;27.40;1.00;;;;;;5014097;28;20541;-70
2023/07/10 06:35:49;;;;;;;9.93;6.47;;;27.30;1.00;;;;;;5013899;28;20476;-70
2023/07/10 06:38:15;;;;;;;9.00;7.17;;;26.90;1.00;;;;;;5014169;28;20442;-70
2023/07/10 06:40:40;;;;;;;6.47;5.80;;;26.60;1.00;;;;;;5013934;28;20265;-71
2023/07/10 06:43:06;;;;;;;9.00;6.27;;;26.50;1.00;;;;;;5014372;28;20684;-71
2023/07/10 06:45:31;;;;;;;9.40;6.20;;;26.40;1.00;;;;;;5014023;28;20238;-72
2023/07/10 06:47:57;;;;;;;9.63;6.53;;;26.40;1.00;;;;;;5012388;28;20621;-72
2023/07/10 06:50:22;;;;;;;18.37;9.50;;;26.40;1.00;;;;;;5013602;28;20212;-71
2023/07/10 06:52:48;;;;;;;8.30;6.90;;;26.60;1.00;;;;;;5013731;28;20550;-70
2023/07/10 06:55:16;;;;;;;8.10;6.10;;;26.90;1.00;;;;;;5014104;28;20183;-65
2023/07/10 06:57:42;;;;;;;10.03;5.50;;;27.30;1.00;;;;;;5014082;28;20239;-74
2023/07/10 07:00:10;;;;;;;6.07;5.47;;;27.50;1.00;;;;;;5013743;28;20533;-68
2023/07/10 07:02:52;;;;;;;6.43;5.93;;;27.30;1.00;;;;;;5013819;28;20439;-71
2023/07/10 07:05:17;;;;;;;7.37;5.30;;;27.10;1.00;;;;;;5012734;28;20791;-68
2023/07/10 07:07:43;;;;;;;7.20;5.53;;;27.00;1.00;;;;;;5014133;28;20411;-68
2023/07/10 07:10:13;;;;;;;6.47;5.87;;;27.00;1.00;;;;;;5013908;28;20577;-68
2023/07/10 07:12:40;;;;;;;11.90;6.77;;;27.30;1.00;;;;;;5013867;28;20183;-68
2023/07/10 07:15:06;;;;;;;8.33;6.43;;;27.80;1.00;;;;;;5005972;28;20450;-68
2023/07/10 07:17:33;;;;;;;10.20;6.70;;;28.50;1.00;;;;;;4995466;28;20555;-68
2023/07/10 07:19:58;;;;;;;13.77;11.70;;;29.40;1.00;;;;;;4998714;28;20485;-68
2023/07/10 07:22:24;;;;;;;11.50;8.60;;;29.50;1.00;;;;;;5013179;28;20415;-68
2023/07/10 07:24:49;;;;;;;9.30;7.30;;;29.60;1.00;;;;;;5013232;28;20633;-68
2023/07/10 07:27:15;;;;;;;7.30;6.60;;;29.50;1.00;;;;;;5013553;28;20641;-68
2023/07/10 07:29:41;;;;;;;7.33;6.20;;;29.40;1.00;;;;;;5013554;28;20231;-69
2023/07/10 07:32:09;;;;;;;7.47;6.73;;;29.60;1.00;;;;;;5007456;28;20267;-68
2023/07/10 07:34:34;;;;;;;11.70;6.10;;;30.10;1.00;;;;;;4993716;28;20318;-68
2023/07/10 07:37:00;;;;;;;8.40;7.70;;;30.60;1.00;;;;;;4993788;28;20464;-66
2023/07/10 07:39:30;;;;;;;7.33;6.10;;;33.50;1.00;;;;;;5001497;28;20208;-68
2023/07/10 07:41:56;;;;;;;14.53;7.77;;;35.90;1.00;;;;;;5013227;28;20176;-70
2023/07/10 07:44:22;;;;;;;9.40;6.70;;;37.30;1.00;;;;;;5011388;28;20505;-68
2023/07/10 07:46:47;;;;;;;6.77;6.10;;;36.70;1.00;;;;;;5006231;28;20267;-68
2023/07/10 07:49:13;;;;;;;9.70;6.77;;;35.40;1.00;;;;;;4989513;28;20217;-69
2023/07/10 07:51:39;;;;;;;7.67;6.60;;;36.80;1.00;;;;;;5001975;28;20188;-70
2023/07/10 07:54:08;;;;;;;7.90;7.10;;;38.50;1.00;;;;;;5008257;28;20238;-70
2023/07/10 07:56:34;;;;;;;8.70;6.60;;;38.60;1.00;;;;;;5008720;28;20192;-70
2023/07/10 07:59:00;;;;;;;8.00;7.20;;;39.50;1.00;;;;;;5007982;28;20496;-67
2023/07/10 08:01:26;;;;;;;6.67;6.00;;;40.10;1.00;;;;;;5008210;28;20194;-67
2023/07/10 08:03:51;;;;;;;6.67;5.90;;;40.50;1.00;;;;;;5008997;28;20192;-68
2023/07/10 08:06:17;;;;;;;6.60;6.10;;;40.70;1.00;;;;;;5008379;28;20194;-68
2023/07/10 08:08:42;;;;;;;7.00;6.50;;;40.80;1.00;;;;;;5002334;28;20276;-69
2023/07/10 08:11:09;;;;;;;7.17;6.57;;;39.30;1.00;;;;;;5011185;28;20216;-70
2023/07/10 08:13:35;;;;;;;7.90;6.20;;;38.30;1.00;;;;;;5008848;28;20219;-71
2023/07/10 08:16:00;;;;;;;7.43;6.83;;;38.90;1.00;;;;;;5009134;28;20451;-71
2023/07/10 08:18:26;;;;;;;6.27;5.63;;;39.50;1.00;;;;;;5009417;28;20192;-69
2023/07/10 08:21:00;;;;;;;6.50;5.90;;;39.70;1.00;;;;;;5008057;28;20230;-68
2023/07/10 08:23:25;;;;;;;6.03;5.50;;;39.60;1.00;;;;;;4995545;28;20193;-69
2023/07/10 08:25:51;;;;;;;6.70;6.10;;;40.50;1.00;;;;;;5016670;28;20438;-67
2023/07/10 08:28:16;;;;;;;6.70;6.13;;;40.20;1.00;;;;;;4998446;28;20698;-69
2023/07/10 08:30:42;;;;;;;6.80;6.30;;;40.70;1.00;;;;;;5008846;28;20196;-69
2023/07/10 08:33:07;;;;;;;7.10;6.60;;;40.80;1.00;;;;;;5009607;28;20184;-71
2023/07/10 08:35:33;;;;;;;8.10;7.30;;;40.00;1.00;;;;;;5006074;28;20212;-69
2023/07/10 08:37:58;;;;;;;6.83;6.30;;;41.10;1.00;;;;;;5003033;28;20250;-68
2023/07/10 08:40:33;;;;;;;7.50;6.90;;;41.00;1.00;;;;;;5004726;28;20239;-70
2023/07/10 08:43:08;;;;;;;7.60;6.90;;;42.40;1.00;;;;;;5009466;28;20176;-73
2023/07/10 08:45:37;;;;;;;8.80;6.93;;;41.70;1.00;;;;;;5010031;28;20426;-73
2023/07/10 08:48:41;;;;;;;9.13;6.90;;;42.00;1.00;;;;;;5010102;28;20423;-72
2023/07/10 08:51:26;;;;;;;9.33;6.20;;;39.50;1.00;;;;;;5009621;28;21035;-73
2023/07/10 08:54:03;;;;;;;7.13;6.53;;;39.60;1.00;;;;;;5010838;28;20410;-72
2023/07/10 08:56:35;;;;;;;6.57;6.07;;;38.70;1.00;;;;;;5011972;28;20406;-73
2023/07/10 08:59:21;;;;;;;7.33;6.63;;;39.70;1.00;;;;;;5011703;28;20538;-72
2023/07/10 09:01:47;;;;;;;6.67;6.17;;;40.30;1.00;;;;;;5006980;28;20434;-71
2023/07/10 09:04:16;;;;;;;7.23;6.63;;;40.10;1.00;;;;;;5007662;28;20423;-71
2023/07/10 09:06:49;;;;;;;7.67;6.93;;;40.00;1.00;;;;;;5006955;28;20422;-71
2023/07/10 09:09:47;;;;;;;6.87;6.17;;;41.00;1.00;;;;;;5006699;28;20470;-71
2023/07/10 09:12:40;;;;;;;7.40;6.27;;;40.40;1.00;;;;;;5006200;28;21041;-71
2023/07/10 09:15:12;;;;;;;6.90;6.40;;;41.70;1.00;;;;;;5007667;28;20418;-71
2023/07/10 09:17:49;;;;;;;6.80;6.40;;;40.80;1.00;;;;;;5011166;28;20410;-72
2023/07/10 09:20:15;;;;;;;7.37;6.77;;;40.50;1.00;;;;;;5011358;28;20462;-71
2023/07/10 09:22:52;;;;;;;7.43;6.70;;;37.10;1.00;;;;;;5010899;28;20423;-71
2023/07/10 09:25:20;;;;;;;7.53;6.83;;;36.40;1.00;;;;;;5011458;28;20403;-71
2023/07/10 09:27:46;;;;;;;9.10;7.57;;;35.50;1.00;;;;;;5011295;28;20407;-68
2023/07/10 09:30:26;;;;;;;7.43;6.83;;;34.90;1.00;;;;;;5011160;28;20492;-71
2023/07/10 09:33:03;;;;;;;7.43;6.77;;;34.70;1.00;;;;;;5010934;28;20796;-71
2023/07/10 09:35:29;;;;;;;6.60;6.10;;;34.30;1.00;;;;;;5011349;28;20469;-71
2023/07/10 09:37:55;;;;;;;6.50;6.00;;;33.90;1.00;;;;;;5010979;28;20461;-72
2023/07/10 09:40:43;;;;;;;7.90;7.20;;;34.00;1.00;;;;;;5011094;28;20498;-71
2023/07/10 09:43:14;;;;;;;8.63;7.83;;;33.20;1.00;;;;;;5013117;28;20226;-72
2023/07/10 09:45:44;;;;;;;7.00;6.40;;;33.20;1.00;;;;;;5015277;28;20414;-71
2023/07/10 09:48:36;;;;;;;6.87;6.37;;;33.30;1.00;;;;;;5015162;28;20475;-72
2023/07/10 09:51:05;;;;;;;7.10;6.60;;;33.00;1.00;;;;;;5014955;28;21019;-71
2023/07/10 09:53:48;;;;;;;7.50;6.70;;;33.40;1.00;;;;;;5008046;28;20870;-71
2023/07/10 09:56:25;;;;;;;7.30;6.60;;;33.10;1.00;;;;;;5003952;28;20420;-71
2023/07/10 09:58:55;;;;;;;7.50;6.90;;;32.70;1.00;;;;;;4995091;28;20772;-68
2023/07/10 10:01:25;;;;;;;9.33;7.87;;;32.40;1.00;;;;;;5014481;28;20513;-72
2023/07/10 10:03:52;;;;;;;6.80;6.30;;;32.30;1.00;;;;;;5014438;28;20920;-70
2023/07/10 10:06:26;;;;;;;7.40;6.20;;;32.40;1.00;;;;;;5014536;28;20410;-70
2023/07/10 10:08:52;;;;;;;8.40;6.23;;;32.30;1.00;;;;;;5014567;28;20403;-71
2023/07/10 10:11:39;;;;;;;7.60;7.00;;;32.30;1.00;;;;;;5013100;28;20410;-72
2023/07/10 10:14:09;;;;;;;6.97;6.33;;;32.00;1.00;;;;;;4997046;28;20510;-70
2023/07/10 10:16:52;;;;;;;9.07;6.63;;;32.40;1.00;;;;;;5014584;28;20422;-71
2023/07/10 10:19:25;;;;;;;7.20;6.60;;;32.70;1.00;;;;;;5014257;28;20808;-72
2023/07/10 10:21:51;;;;;;;8.40;7.70;;;32.90;1.00;;;;;;5009832;28;20997;-71
2023/07/10 10:24:16;;;;;;;6.97;6.27;;;33.30;1.00;;;;;;5014244;28;20503;-72
2023/07/10 10:26:42;;;;;;;5.60;5.20;;;33.10;1.00;;;;;;5014450;28;20634;-72
2023/07/10 10:29:27;;;;;;;7.40;6.70;;;33.10;1.00;;;;;;5014045;28;20438;-71
2023/07/10 10:32:08;;;;;;;7.03;6.07;;;32.90;1.00;;;;;;5014251;28;20415;-72
2023/07/10 10:34:49;;;;;;;6.80;6.30;;;32.60;1.00;;;;;;5014331;28;20804;-72
2023/07/10 10:37:38;;;;;;;8.80;6.90;;;32.60;1.00;;;;;;5014116;28;20407;-72
2023/07/10 10:40:30;;;;;;;7.07;6.47;;;32.80;1.00;;;;;;5014226;28;20474;-72
2023/07/10 10:43:31;;;;;;;6.70;6.17;;;33.00;1.00;;;;;;5014008;28;20434;-72
2023/07/10 10:46:14;;;;;;;7.40;6.70;;;33.20;1.00;;;;;;5013968;28;20407;-72
2023/07/10 10:48:45;;;;;;;7.30;6.60;;;33.20;1.00;;;;;;5014555;28;20615;-72
2023/07/10 10:51:29;;;;;;;6.83;6.20;;;33.00;1.00;;;;;;5013725;28;21039;-72
2023/07/10 10:54:10;;;;;;;7.37;6.73;;;32.50;1.00;;;;;;5012587;28;20778;-71
2023/07/10 10:56:43;;;;;;;7.07;6.37;;;32.50;1.00;;;;;;5013828;28;20457;-72
2023/07/10 10:59:24;;;;;;;7.30;6.70;;;32.70;1.00;;;;;;5013549;28;20840;-71
2023/07/10 11:01:56;;;;;;;8.17;7.50;;;32.80;1.00;;;;;;5013317;28;20414;-71
2023/07/10 11:04:36;;;;;;;7.57;6.80;;;33.00;1.00;;;;;;5013839;28;20418;-72
2023/07/10 11:07:07;;;;;;;7.53;6.40;;;33.40;1.00;;;;;;5013555;28;20431;-72
2023/07/10 11:09:42;;;;;;;6.50;6.00;;;33.90;1.00;;;;;;5011865;28;20481;-71
2023/07/10 11:12:18;;;;;;;8.40;7.80;;;33.70;1.00;;;;;;5012963;28;20480;-70
2023/07/10 11:14:45;;;;;;;6.60;6.03;;;33.80;1.00;;;;;;5013410;28;20465;-71
2023/07/10 11:17:12;;;;;;;8.83;8.00;;;33.90;1.00;;;;;;5013356;28;20422;-71
2023/07/10 11:19:38;;;;;;;7.17;6.57;;;34.20;1.00;;;;;;5013254;28;20840;-71
2023/07/10 11:22:11;;;;;;;7.57;7.03;;;33.50;1.00;;;;;;5012841;28;20411;-71
2023/07/10 11:24:37;;;;;;;8.23;7.63;;;33.50;1.00;;;;;;5013103;28;20172;-71
2023/07/10 11:27:31;;;;;;;7.80;7.20;;;33.30;1.00;;;;;;5012812;28;20798;-70
2023/07/10 11:30:12;;;;;;;7.67;7.07;;;33.70;1.00;;;;;;5012840;28;20521;-71
2023/07/10 11:33:18;;;;;;;9.43;7.40;;;33.80;1.00;;;;;;5012500;28;20422;-70
2023/07/10 11:36:14;;;;;;;7.37;6.77;;;33.60;1.00;;;;;;5012601;28;20521;-71
2023/07/10 11:39:05;;;;;;;6.83;6.33;;;33.30;1.00;;;;;;5012757;28;20414;-73
2023/07/10 11:41:35;;;;;;;7.97;7.37;;;33.20;1.00;;;;;;5012553;28;20564;-73
2023/07/10 11:44:33;;;;;;;7.77;7.17;;;33.20;1.00;;;;;;5012954;28;20511;-72
2023/07/10 11:47:10;;;;;;;7.17;6.57;;;33.00;1.00;;;;;;5013042;28;20477;-72
2023/07/10 11:49:45;;;;;;;8.17;7.43;;;33.20;1.00;;;;;;5012983;28;20461;-73
2023/07/10 11:52:13;;;;;;;8.23;6.67;;;33.30;1.00;;;;;;5012752;28;20984;-73
2023/07/10 11:54:46;;;;;;;7.27;6.77;;;33.40;1.00;;;;;;5012767;28;20521;-73
2023/07/10 11:57:22;;;;;;;10.73;6.80;;;33.50;1.00;;;;;;5012483;28;20459;-72
2023/07/10 11:59:55;;;;;;;6.40;5.90;;;33.50;1.00;;;;;;5012444;28;20549;-72
2023/07/10 12:02:35;;;;;;;7.77;7.07;;;33.30;1.00;;;;;;5012336;28;20442;-73
2023/07/10 12:05:21;;;;;;;12.57;7.67;;;33.00;1.00;;;;;;5012190;28;20411;-73
2023/07/10 12:07:54;;;;;;;7.50;6.73;;;33.00;1.00;;;;;;5005418;28;20415;-73
2023/07/10 12:10:20;;;;;;;7.53;6.93;;;33.00;1.00;;;;;;5012584;28;20466;-73
2023/07/10 12:12:45;;;;;;;8.03;7.30;;;33.10;1.00;;;;;;5012783;28;20426;-73
2023/07/10 12:15:11;;;;;;;7.13;6.53;;;33.10;1.00;;;;;;5012969;28;20782;-73
2023/07/10 12:17:39;;;;;;;7.80;6.83;;;33.10;1.00;;;;;;5013044;28;20199;-73
2023/07/10 12:20:28;;;;;;;7.53;6.93;;;33.60;1.00;;;;;;5011742;28;21019;-73
2023/07/10 12:22:59;;;;;;;8.03;7.23;;;33.40;1.00;;;;;;5012595;28;20695;-73
2023/07/10 12:25:24;;;;;;;7.27;6.77;;;33.50;1.00;;;;;;5012662;28;20478;-73
2023/07/10 12:27:50;;;;;;;7.60;7.00;;;33.40;1.00;;;;;;5012241;28;20430;-73
2023/07/10 12:30:24;;;;;;;7.20;6.50;;;33.20;1.00;;;;;;5012276;28;20254;-73
2023/07/10 12:32:52;;;;;;;7.43;6.73;;;33.40;1.00;;;;;;5011878;28;20623;-72
2023/07/10 12:35:27;;;;;;;7.73;7.13;;;33.50;1.00;;;;;;4996496;28;20612;-72
2023/07/10 12:37:53;;;;;;;7.30;6.80;;;34.10;1.00;;;;;;4992911;28;20730;-72
2023/07/10 12:40:19;;;;;;;8.10;7.50;;;34.40;1.00;;;;;;5005235;28;20467;-71
2023/07/10 12:42:47;;;;;;;6.90;6.37;;;34.70;1.00;;;;;;4992152;28;20172;-71
2023/07/10 12:45:26;;;;;;;7.10;5.83;;;34.80;1.00;;;;;;4992430;28;20251;-71
2023/07/10 12:48:10;;;;;;;7.70;6.77;;;34.80;1.00;;;;;;4992343;28;20446;-70
2023/07/10 12:50:42;;;;;;;6.97;6.37;;;34.80;1.00;;;;;;4992258;28;20782;-70
2023/07/10 12:53:15;;;;;;;6.70;6.10;;;34.30;1.00;;;;;;5001672;28;20438;-71
2023/07/10 12:55:41;;;;;;;7.20;6.60;;;34.20;1.00;;;;;;5011628;28;20405;-71
2023/07/10 12:58:12;;;;;;;7.37;6.67;;;34.40;1.00;;;;;;5010440;28;20430;-71
2023/07/10 13:00:47;;;;;;;7.93;7.33;;;34.80;1.00;;;;;;5011478;28;20278;-71
2023/07/10 13:03:27;;;;;;;7.40;6.80;;;34.80;1.00;;;;;;5011253;28;20406;-71
2023/07/10 13:06:04;;;;;;;8.03;6.53;;;35.00;1.00;;;;;;5011593;28;20407;-70
2023/07/10 13:08:48;;;;;;;7.20;6.60;;;34.80;1.00;;;;;;5011285;28;20454;-71
2023/07/10 13:11:21;;;;;;;13.40;7.20;;;34.90;1.00;;;;;;5011729;28;20950;-72